Time;durP1;ratioP1;P1;durP2;ratioP2;P2;SDS_P1;SDS_P2;PMS_P1;PMS_P2;Temp;Humidity;BMP_temperature;BMP_pressure;BME280_temperature;BME280_humidity;BME280_pressure;Samples;Min_cycle;Max_cycle;Signal;HPM_P1;HPM_P2
2023/10/26 00:00:33;;;;;;;1.07;0.97;;;10.70;99.90;;;;;;4991477;28;20453;-66
2023/10/26 00:02:59;;;;;;;3.63;1.17;;;10.80;99.90;;;;;;4993036;28;20260;-66
2023/10/26 00:05:25;;;;;;;1.53;1.10;;;10.80;99.90;;;;;;4990698;28;20190;-66
2023/10/26 00:07:51;;;;;;;1.40;1.20;;;10.80;99.90;;;;;;4993558;28;20262;-66
2023/10/26 00:10:17;;;;;;;2.37;1.40;;;10.90;99.90;;;;;;4991494;28;20873;-66
2023/10/26 00:12:43;;;;;;;1.30;1.00;;;10.90;99.90;;;;;;4990693;28;20210;-66
2023/10/26 00:15:09;;;;;;;3.53;1.10;;;10.90;99.90;;;;;;4994162;28;20431;-66
2023/10/26 00:17:36;;;;;;;1.30;1.20;;;10.90;99.90;;;;;;4989932;28;20454;-66
2023/10/26 00:20:01;;;;;;;0.97;0.97;;;11.00;99.90;;;;;;4993614;28;20449;-66
2023/10/26 00:22:28;;;;;;;2.17;1.30;;;11.00;99.90;;;;;;4991975;28;20852;-66
2023/10/26 00:24:54;;;;;;;0.90;0.83;;;11.00;99.90;;;;;;4994001;28;20271;-66
2023/10/26 00:27:19;;;;;;;1.37;0.80;;;11.00;99.90;;;;;;4989454;28;20581;-66
2023/10/26 00:29:45;;;;;;;2.33;1.00;;;11.00;99.90;;;;;;4993318;28;20262;-65
2023/10/26 00:32:11;;;;;;;1.13;1.03;;;11.10;99.90;;;;;;4986861;28;21770;-66
2023/10/26 00:34:37;;;;;;;5.20;1.67;;;11.00;99.90;;;;;;4992788;28;20230;-66
2023/10/26 00:37:02;;;;;;;2.33;1.20;;;11.00;99.90;;;;;;4991599;28;20211;-66
2023/10/26 00:39:28;;;;;;;1.47;1.17;;;11.00;99.90;;;;;;4992916;28;20780;-66
2023/10/26 00:41:55;;;;;;;3.53;1.40;;;11.00;99.90;;;;;;4989444;28;20187;-65
2023/10/26 00:44:22;;;;;;;4.03;2.00;;;10.90;99.90;;;;;;4992622;28;20191;-66
2023/10/26 00:46:48;;;;;;;1.40;1.13;;;10.90;99.90;;;;;;4992175;28;20485;-66
2023/10/26 00:49:15;;;;;;;6.33;1.30;;;10.90;99.90;;;;;;4992811;28;20442;-66
2023/10/26 00:51:44;;;;;;;1.07;0.97;;;10.90;99.90;;;;;;4984666;28;20466;-66
2023/10/26 00:54:10;;;;;;;1.80;1.20;;;10.90;99.90;;;;;;4989921;28;20449;-66
2023/10/26 00:56:37;;;;;;;3.53;1.50;;;10.80;99.90;;;;;;4990030;28;20493;-66
2023/10/26 00:59:03;;;;;;;1.00;0.90;;;10.80;99.90;;;;;;4993506;28;20435;-66
2023/10/26 01:01:32;;;;;;;1.90;1.67;;;10.70;99.90;;;;;;4988138;28;20435;-66
2023/10/26 01:03:59;;;;;;;1.00;0.90;;;10.60;99.90;;;;;;4989102;28;20458;-66
2023/10/26 01:06:25;;;;;;;1.40;1.30;;;10.60;99.90;;;;;;4990955;28;20490;-66
2023/10/26 01:08:50;;;;;;;1.73;1.10;;;10.60;99.90;;;;;;4985625;28;20520;-66
2023/10/26 01:11:16;;;;;;;2.90;1.40;;;10.60;99.90;;;;;;4986078;28;20618;-66
2023/10/26 01:13:42;;;;;;;1.27;1.17;;;10.60;99.90;;;;;;4990462;28;20235;-66
2023/10/26 01:16:09;;;;;;;2.33;1.13;;;10.50;99.90;;;;;;4991699;28;20549;-66
2023/10/26 01:18:34;;;;;;;4.40;1.27;;;10.50;99.90;;;;;;4989252;28;20449;-66
2023/10/26 01:21:00;;;;;;;1.00;0.90;;;10.60;99.90;;;;;;4990498;28;20450;-66
2023/10/26 01:23:25;;;;;;;1.17;1.07;;;10.50;99.90;;;;;;4991017;28;20183;-66
2023/10/26 01:25:58;;;;;;;2.70;0.90;;;10.50;99.90;;;;;;4989575;28;20679;-66
2023/10/26 01:28:25;;;;;;;2.87;1.20;;;10.40;99.90;;;;;;4991399;28;20191;-66
2023/10/26 01:30:52;;;;;;;1.83;1.10;;;10.40;99.90;;;;;;4991783;28;20449;-66
2023/10/26 01:33:17;;;;;;;1.07;0.97;;;10.30;99.90;;;;;;4986657;28;20473;-66
2023/10/26 01:35:45;;;;;;;2.93;1.17;;;10.30;99.90;;;;;;4992578;28;20450;-66
2023/10/26 01:38:11;;;;;;;2.70;1.00;;;10.30;99.90;;;;;;4992242;28;20180;-66
2023/10/26 01:40:37;;;;;;;1.20;1.03;;;10.30;99.90;;;;;;4990325;28;21074;-66
2023/10/26 01:43:02;;;;;;;4.13;1.40;;;10.30;99.90;;;;;;4990389;28;20959;-66
2023/10/26 01:45:28;;;;;;;4.43;1.10;;;10.20;99.90;;;;;;4991476;28;20180;-66
2023/10/26 01:47:54;;;;;;;1.00;0.90;;;10.20;99.90;;;;;;4991751;28;20179;-66
2023/10/26 01:50:20;;;;;;;1.73;1.10;;;10.10;99.90;;;;;;4991762;28;20191;-66
2023/10/26 01:52:46;;;;;;;5.50;1.27;;;10.10;99.90;;;;;;4983389;28;20470;-66
2023/10/26 01:55:11;;;;;;;1.83;1.03;;;10.00;99.90;;;;;;4990909;28;20928;-67
2023/10/26 01:57:37;;;;;;;1.73;1.50;;;10.00;99.90;;;;;;4988717;28;20554;-66
2023/10/26 02:00:03;;;;;;;1.13;1.03;;;9.90;99.90;;;;;;4991633;28;20179;-66
2023/10/26 02:02:28;;;;;;;5.47;1.27;;;9.90;99.90;;;;;;4986684;28;20188;-66
2023/10/26 02:04:57;;;;;;;2.23;1.10;;;9.80;99.90;;;;;;4990842;28;20454;-66
2023/10/26 02:07:22;;;;;;;1.00;0.90;;;9.80;99.90;;;;;;4989353;28;20195;-66
2023/10/26 02:09:48;;;;;;;0.93;0.93;;;9.80;99.90;;;;;;4990672;28;20962;-66
2023/10/26 02:12:13;;;;;;;1.13;0.97;;;9.80;99.90;;;;;;4987053;28;20711;-66
2023/10/26 02:14:39;;;;;;;1.97;1.00;;;9.70;99.90;;;;;;4987222;28;20187;-66
2023/10/26 02:17:05;;;;;;;1.60;0.90;;;9.70;99.90;;;;;;4989938;28;20234;-66
2023/10/26 02:19:30;;;;;;;1.60;1.27;;;9.70;99.90;;;;;;4988535;28;20183;-66
2023/10/26 02:21:56;;;;;;;5.30;1.40;;;9.70;99.90;;;;;;4988611;28;20469;-66
2023/10/26 02:24:22;;;;;;;1.70;1.00;;;9.60;99.90;;;;;;4993699;28;20188;-66
2023/10/26 02:26:47;;;;;;;3.23;1.37;;;9.60;99.90;;;;;;4994325;28;20230;-66
2023/10/26 02:29:12;;;;;;;3.80;1.67;;;9.50;99.90;;;;;;4994361;28;20194;-66
2023/10/26 02:31:38;;;;;;;4.07;1.10;;;9.50;99.90;;;;;;4993876;28;20189;-66
2023/10/26 02:34:04;;;;;;;1.53;1.37;;;9.40;99.90;;;;;;4992189;28;20596;-66
2023/10/26 02:36:30;;;;;;;1.47;1.23;;;9.40;99.90;;;;;;4994060;28;20695;-66
2023/10/26 02:38:55;;;;;;;1.57;1.20;;;9.40;99.90;;;;;;4993803;28;20712;-66
2023/10/26 02:41:21;;;;;;;1.27;1.10;;;9.30;99.90;;;;;;4988641;28;20531;-66
2023/10/26 02:43:46;;;;;;;1.40;1.30;;;9.30;99.90;;;;;;4989436;28;20211;-66
2023/10/26 02:46:12;;;;;;;2.10;1.40;;;9.30;99.90;;;;;;4984197;28;20238;-66
2023/10/26 02:48:37;;;;;;;2.27;1.13;;;9.30;99.90;;;;;;4988975;28;20186;-66
2023/10/26 02:51:03;;;;;;;2.10;1.13;;;9.30;99.90;;;;;;4995061;28;20186;-66
2023/10/26 02:53:29;;;;;;;1.50;1.40;;;9.20;99.90;;;;;;4986757;28;20211;-66
2023/10/26 02:55:54;;;;;;;3.43;1.50;;;9.20;99.90;;;;;;4993387;28;20283;-66
2023/10/26 02:58:20;;;;;;;1.60;1.50;;;9.20;99.90;;;;;;4994184;28;20239;-66
2023/10/26 03:00:45;;;;;;;2.40;1.40;;;9.20;99.90;;;;;;4995506;28;20254;-66
2023/10/26 03:03:11;;;;;;;2.00;1.20;;;9.20;99.90;;;;;;4991970;28;20624;-66
2023/10/26 03:05:38;;;;;;;1.23;1.10;;;9.20;99.90;;;;;;4992630;28;20270;-66
2023/10/26 03:08:04;;;;;;;1.90;1.60;;;9.20;99.90;;;;;;4993828;28;20526;-66
2023/10/26 03:10:29;;;;;;;3.73;1.50;;;9.20;99.90;;;;;;4994632;28;20438;-66
2023/10/26 03:12:55;;;;;;;4.53;1.70;;;9.20;99.90;;;;;;4988902;28;20496;-66
2023/10/26 03:15:20;;;;;;;1.63;1.53;;;9.20;99.90;;;;;;4992558;28;20172;-66
2023/10/26 03:17:46;;;;;;;2.33;1.70;;;9.20;99.90;;;;;;4993245;28;20186;-66
2023/10/26 03:20:11;;;;;;;3.07;2.77;;;9.20;99.90;;;;;;4991987;28;20601;-66
2023/10/26 03:22:37;;;;;;;6.30;3.40;;;9.20;99.90;;;;;;4993371;28;20179;-66
2023/10/26 03:25:05;;;;;;;1.87;1.77;;;9.20;99.90;;;;;;4993494;28;20179;-66
2023/10/26 03:27:30;;;;;;;3.70;1.73;;;9.30;99.90;;;;;;4991490;28;20223;-66
2023/10/26 03:29:56;;;;;;;2.83;2.00;;;9.30;99.90;;;;;;4994967;28;20434;-66
2023/10/26 03:32:22;;;;;;;1.80;1.70;;;9.30;99.90;;;;;;4991217;28;20691;-66
2023/10/26 03:34:52;;;;;;;3.07;1.80;;;9.30;99.90;;;;;;4987682;28;20434;-66
2023/10/26 03:37:17;;;;;;;2.27;1.70;;;9.30;99.90;;;;;;4993930;28;20576;-66
2023/10/26 03:39:43;;;;;;;2.00;1.73;;;9.30;99.90;;;;;;4994795;28;20429;-66
2023/10/26 03:42:08;;;;;;;2.13;1.90;;;9.30;99.90;;;;;;4994379;28;20187;-66
2023/10/26 03:44:34;;;;;;;2.93;1.57;;;9.30;99.90;;;;;;4992159;28;20199;-66
2023/10/26 03:46:59;;;;;;;3.00;2.07;;;9.30;99.90;;;;;;4994023;28;20199;-66
2023/10/26 03:49:25;;;;;;;2.57;1.93;;;9.20;99.90;;;;;;4989548;28;20297;-66
2023/10/26 03:51:51;;;;;;;2.03;1.63;;;9.20;99.90;;;;;;4991986;28;20211;-66
2023/10/26 03:54:16;;;;;;;1.70;1.60;;;9.20;99.90;;;;;;4987419;28;20684;-66
2023/10/26 03:56:43;;;;;;;2.00;1.43;;;9.20;99.90;;;;;;4985476;28;20207;-66
2023/10/26 03:59:08;;;;;;;3.90;1.57;;;9.10;99.90;;;;;;4983966;28;20637;-66
2023/10/26 04:01:36;;;;;;;1.53;1.43;;;9.10;99.90;;;;;;4986477;28;20451;-66
2023/10/26 04:04:02;;;;;;;1.60;1.50;;;9.10;99.90;;;;;;4984831;28;20197;-66
2023/10/26 04:06:30;;;;;;;2.20;2.00;;;9.10;99.90;;;;;;4986426;28;20886;-66
2023/10/26 04:08:56;;;;;;;1.43;1.33;;;9.10;99.90;;;;;;4987251;28;20801;-66
2023/10/26 04:11:22;;;;;;;1.50;1.40;;;9.20;99.90;;;;;;4985164;28;20973;-66
2023/10/26 04:13:48;;;;;;;1.90;1.70;;;9.20;99.90;;;;;;4983492;28;20574;-66
2023/10/26 04:16:13;;;;;;;2.13;1.60;;;9.20;99.90;;;;;;4983236;28;20549;-66
2023/10/26 04:18:39;;;;;;;2.57;2.17;;;9.20;99.90;;;;;;4985254;28;20226;-66
2023/10/26 04:21:05;;;;;;;2.37;1.80;;;9.20;99.90;;;;;;4984731;28;20209;-66
2023/10/26 04:23:30;;;;;;;1.83;1.70;;;9.20;99.90;;;;;;4985243;28;20673;-66
2023/10/26 04:25:56;;;;;;;4.17;2.23;;;9.20;99.90;;;;;;4981411;28;20211;-66
2023/10/26 04:28:21;;;;;;;2.17;1.30;;;9.20;99.90;;;;;;4988443;28;20179;-66
2023/10/26 04:30:48;;;;;;;1.60;1.50;;;9.20;99.90;;;;;;4995326;28;20180;-66
2023/10/26 04:33:14;;;;;;;2.00;1.10;;;9.20;99.90;;;;;;4993906;28;20234;-66
2023/10/26 04:35:41;;;;;;;2.57;1.70;;;9.10;99.90;;;;;;4974688;28;20412;-66
2023/10/26 04:38:08;;;;;;;1.50;1.40;;;9.10;99.90;;;;;;4974664;28;20420;-66
2023/10/26 04:40:34;;;;;;;4.77;1.70;;;9.10;99.90;;;;;;4974970;28;21008;-66
2023/10/26 04:42:59;;;;;;;1.87;1.53;;;9.10;99.90;;;;;;4989897;28;20442;-66
2023/10/26 04:45:25;;;;;;;2.50;1.43;;;9.20;99.90;;;;;;4984163;28;20463;-66
2023/10/26 04:47:50;;;;;;;5.07;1.70;;;9.10;99.90;;;;;;4982412;28;20192;-66
2023/10/26 04:50:16;;;;;;;1.90;1.43;;;9.20;99.90;;;;;;4984461;28;20175;-66
2023/10/26 04:52:41;;;;;;;2.70;2.40;;;9.20;99.90;;;;;;4984754;28;20211;-66
2023/10/26 04:55:07;;;;;;;2.40;1.80;;;9.20;99.90;;;;;;4984285;28;20188;-66
2023/10/26 04:57:34;;;;;;;1.90;1.80;;;9.20;99.90;;;;;;4984417;28;21448;-66
2023/10/26 05:00:00;;;;;;;2.33;1.70;;;9.20;99.90;;;;;;4986066;28;20191;-66
2023/10/26 05:02:25;;;;;;;3.90;1.97;;;9.20;99.90;;;;;;4986489;28;20944;-66
2023/10/26 05:04:51;;;;;;;5.03;1.57;;;9.20;99.90;;;;;;4984273;28;20186;-66
2023/10/26 05:07:17;;;;;;;2.40;1.50;;;9.30;99.90;;;;;;4982987;28;20290;-66
2023/10/26 05:09:42;;;;;;;2.90;1.90;;;9.30;99.90;;;;;;4984359;28;20183;-66
2023/10/26 05:12:08;;;;;;;1.80;1.70;;;9.30;99.90;;;;;;4984575;28;20289;-66
2023/10/26 05:14:33;;;;;;;1.70;1.60;;;9.30;99.90;;;;;;4983936;28;20210;-66
2023/10/26 05:16:59;;;;;;;1.67;1.57;;;9.30;99.90;;;;;;4983807;28;20199;-66
2023/10/26 05:19:24;;;;;;;3.90;1.30;;;9.30;99.90;;;;;;4984408;28;20179;-66
2023/10/26 05:21:50;;;;;;;3.43;1.70;;;9.30;99.90;;;;;;4983911;28;20665;-66
2023/10/26 05:24:15;;;;;;;1.67;1.27;;;9.30;99.90;;;;;;4984024;28;20198;-66
2023/10/26 05:26:41;;;;;;;2.87;1.47;;;9.30;99.90;;;;;;5000057;23;20227;-75
2023/10/26 05:29:06;;;;;;;2.20;2.00;;;9.30;99.90;;;;;;4984068;28;20242;-75
2023/10/26 05:31:32;;;;;;;1.83;1.40;;;9.30;99.90;;;;;;4983598;28;20586;-74
2023/10/26 05:33:57;;;;;;;1.77;1.60;;;9.30;99.90;;;;;;4983229;28;20249;-74
2023/10/26 05:36:23;;;;;;;3.30;1.60;;;9.30;99.90;;;;;;4983673;28;20285;-72
2023/10/26 05:38:49;;;;;;;1.83;1.40;;;9.30;99.90;;;;;;4976608;28;20193;-72
2023/10/26 05:41:15;;;;;;;2.50;2.30;;;9.40;99.90;;;;;;4983740;28;20190;-74
2023/10/26 05:43:40;;;;;;;2.90;1.43;;;9.40;99.90;;;;;;4984016;28;20442;-73
2023/10/26 05:46:06;;;;;;;2.27;1.63;;;9.50;99.90;;;;;;4984042;28;20187;-73
2023/10/26 05:48:33;;;;;;;3.67;1.40;;;9.50;99.90;;;;;;4985204;28;20274;-73
2023/10/26 05:50:59;;;;;;;1.50;1.40;;;9.50;99.90;;;;;;4986079;28;20183;-72
2023/10/26 05:53:24;;;;;;;1.83;1.73;;;9.60;99.90;;;;;;4984976;28;20470;-72
2023/10/26 05:56:00;;;;;;;2.83;2.60;;;9.60;99.90;;;;;;4980799;28;20186;-73
2023/10/26 05:58:26;;;;;;;3.80;2.90;;;9.70;99.90;;;;;;4988294;28;20175;-74
2023/10/26 06:00:52;;;;;;;2.20;1.70;;;9.70;99.90;;;;;;4992365;28;20446;-73
2023/10/26 06:03:17;;;;;;;2.80;2.60;;;9.70;99.90;;;;;;4995277;28;20450;-72
2023/10/26 06:05:43;;;;;;;4.13;3.20;;;9.70;99.90;;;;;;4994127;28;20259;-72
2023/10/26 06:08:09;;;;;;;2.80;2.60;;;9.70;99.90;;;;;;4992674;28;20223;-73
2023/10/26 06:10:34;;;;;;;3.23;2.60;;;9.70;99.90;;;;;;4992639;28;20648;-74
2023/10/26 06:13:00;;;;;;;2.63;2.00;;;9.70;99.90;;;;;;4992092;28;20227;-72
2023/10/26 06:15:25;;;;;;;2.23;2.03;;;9.80;99.90;;;;;;4992093;28;20553;-73
2023/10/26 06:17:51;;;;;;;3.23;2.70;;;9.70;99.90;;;;;;4987300;28;20727;-72
2023/10/26 06:20:17;;;;;;;6.70;2.77;;;9.80;99.90;;;;;;4989466;28;20190;-72
2023/10/26 06:22:42;;;;;;;3.77;2.10;;;9.80;99.90;;;;;;4992340;28;20175;-73
2023/10/26 06:25:08;;;;;;;1.87;1.70;;;9.80;99.90;;;;;;4992407;28;20191;-73
2023/10/26 06:27:34;;;;;;;5.53;2.67;;;9.80;99.90;;;;;;4992230;28;20458;-73
2023/10/26 06:29:59;;;;;;;5.77;2.33;;;9.80;99.90;;;;;;4992496;28;20606;-72
2023/10/26 06:32:25;;;;;;;2.50;1.97;;;9.80;99.90;;;;;;4992083;28;20209;-72
2023/10/26 06:34:51;;;;;;;2.77;2.40;;;9.80;99.90;;;;;;4992169;28;20203;-72
2023/10/26 06:37:17;;;;;;;2.60;2.10;;;9.80;99.90;;;;;;4992369;28;20595;-72
2023/10/26 06:39:42;;;;;;;4.03;2.47;;;9.80;99.90;;;;;;4992521;28;20167;-73
2023/10/26 06:42:08;;;;;;;2.10;1.90;;;9.80;99.90;;;;;;4992127;28;20187;-73
2023/10/26 06:44:33;;;;;;;3.60;1.87;;;9.80;99.90;;;;;;4992054;28;20187;-72
2023/10/26 06:46:59;;;;;;;3.47;2.30;;;9.80;99.90;;;;;;4992401;28;20226;-72
2023/10/26 06:49:24;;;;;;;3.37;2.07;;;9.90;99.90;;;;;;4990873;28;20274;-72
2023/10/26 06:51:50;;;;;;;3.13;1.90;;;9.90;99.90;;;;;;4991950;28;20180;-72
2023/10/26 06:54:16;;;;;;;2.07;1.97;;;9.90;99.90;;;;;;4992090;28;20164;-72
2023/10/26 06:56:42;;;;;;;4.90;2.33;;;10.00;99.90;;;;;;4992186;28;20679;-73
2023/10/26 06:59:07;;;;;;;2.60;2.40;;;10.00;99.90;;;;;;4992234;28;20175;-72
2023/10/26 07:01:33;;;;;;;6.53;3.30;;;10.00;99.90;;;;;;4991942;28;20435;-72
2023/10/26 07:03:59;;;;;;;3.43;1.93;;;10.00;99.90;;;;;;4991807;28;20632;-72
2023/10/26 07:06:25;;;;;;;7.10;2.57;;;10.00;99.90;;;;;;4990512;28;20454;-72
2023/10/26 07:08:51;;;;;;;4.43;2.60;;;10.00;99.90;;;;;;4992202;28;20183;-72
2023/10/26 07:11:16;;;;;;;5.00;2.60;;;10.10;99.90;;;;;;4990780;28;20527;-73
2023/10/26 07:13:42;;;;;;;5.83;2.90;;;10.10;99.90;;;;;;4975971;28;20258;-73
2023/10/26 07:16:08;;;;;;;2.90;2.60;;;10.20;99.90;;;;;;4981547;28;20222;-72
2023/10/26 07:18:33;;;;;;;3.83;3.37;;;10.20;99.90;;;;;;4992761;28;20434;-72
2023/10/26 07:21:04;;;;;;;3.60;2.63;;;10.30;99.90;;;;;;4993104;28;20184;-72
2023/10/26 07:23:30;;;;;;;3.70;2.03;;;10.30;99.90;;;;;;4994608;28;20184;-73
2023/10/26 07:25:55;;;;;;;3.13;2.60;;;10.40;99.90;;;;;;4994463;28;20981;-72
2023/10/26 07:28:21;;;;;;;6.37;3.27;;;10.40;99.90;;;;;;4994405;28;20191;-72
2023/10/26 07:30:50;;;;;;;7.10;3.97;;;10.50;99.90;;;;;;4995411;28;20183;-72
2023/10/26 07:33:18;;;;;;;2.57;2.37;;;10.50;99.90;;;;;;4989936;28;20237;-72
2023/10/26 07:35:52;;;;;;;2.60;2.40;;;10.50;99.90;;;;;;4977758;28;20423;-72
2023/10/26 07:38:18;;;;;;;2.77;2.57;;;10.60;99.90;;;;;;4995403;28;20415;-72
2023/10/26 07:40:51;;;;;;;3.47;2.83;;;10.70;99.90;;;;;;4995133;28;20798;-72
2023/10/26 07:43:16;;;;;;;6.13;5.50;;;10.80;99.90;;;;;;4994763;28;20179;-73
2023/10/26 07:45:42;;;;;;;5.63;4.03;;;10.80;99.90;;;;;;4995082;28;20422;-72
2023/10/26 07:48:07;;;;;;;8.23;7.37;;;10.80;99.90;;;;;;4995276;28;20199;-72
2023/10/26 07:50:33;;;;;;;4.07;2.93;;;10.80;99.90;;;;;;4994773;28;20846;-73
2023/10/26 07:52:58;;;;;;;3.37;3.00;;;10.80;99.90;;;;;;4993280;28;20199;-72
2023/10/26 07:55:24;;;;;;;3.00;2.80;;;10.80;99.90;;;;;;4995010;28;20179;-73
2023/10/26 07:57:50;;;;;;;3.00;2.20;;;10.80;99.90;;;;;;4994749;28;20627;-73
2023/10/26 08:00:16;;;;;;;3.40;2.30;;;10.80;99.90;;;;;;4994970;28;20163;-73
2023/10/26 08:02:41;;;;;;;5.77;3.63;;;10.80;99.90;;;;;;4994205;28;20667;-73
2023/10/26 08:05:08;;;;;;;2.73;2.00;;;10.80;99.90;;;;;;4994955;28;20845;-72
2023/10/26 08:07:34;;;;;;;4.43;2.80;;;10.80;99.90;;;;;;4994807;28;20188;-73
2023/10/26 08:09:59;;;;;;;2.40;1.70;;;10.80;99.90;;;;;;4994838;28;20513;-73
2023/10/26 08:12:25;;;;;;;3.23;2.93;;;10.80;99.90;;;;;;4994369;28;20208;-74
2023/10/26 08:14:51;;;;;;;1.70;1.60;;;10.80;99.90;;;;;;4994335;28;20258;-72
2023/10/26 08:17:17;;;;;;;4.30;1.97;;;10.80;99.90;;;;;;4992545;28;20196;-72
2023/10/26 08:19:42;;;;;;;4.03;2.60;;;10.80;99.90;;;;;;4993608;28;20438;-72
2023/10/26 08:22:10;;;;;;;3.80;2.27;;;10.90;99.90;;;;;;4993787;28;20187;-72
2023/10/26 08:24:36;;;;;;;3.60;2.10;;;10.90;99.90;;;;;;4994174;28;20180;-73
2023/10/26 08:27:02;;;;;;;7.03;2.17;;;11.00;99.90;;;;;;4994248;28;20462;-73
2023/10/26 08:32:11;;;;;;;1.87;1.77;;;11.10;99.90;;;;;;4994411;28;20696;-72
2023/10/26 08:34:38;;;;;;;5.33;2.07;;;11.10;99.90;;;;;;4993960;28;20418;-73
2023/10/26 08:37:04;;;;;;;3.97;1.93;;;11.10;99.90;;;;;;4993840;28;20187;-72
2023/10/26 08:39:30;;;;;;;2.63;2.23;;;11.20;99.90;;;;;;4991652;28;20453;-73
2023/10/26 08:41:58;;;;;;;2.40;1.87;;;11.30;99.90;;;;;;4988102;28;20174;-72
2023/10/26 08:44:25;;;;;;;10.70;1.93;;;11.40;99.90;;;;;;4993833;28;20454;-72
2023/10/26 08:46:57;;;;;;;1.90;1.80;;;11.50;99.90;;;;;;4993623;28;20532;-72
2023/10/26 08:49:28;;;;;;;1.80;1.70;;;11.70;99.90;;;;;;4994034;28;20506;-73
2023/10/26 08:51:54;;;;;;;1.90;1.70;;;11.90;99.90;;;;;;4993948;28;20453;-72
2023/10/26 08:54:20;;;;;;;2.73;2.30;;;12.10;99.90;;;;;;4993578;28;20446;-72
2023/10/26 08:56:45;;;;;;;2.43;1.67;;;12.20;99.90;;;;;;4993482;28;20445;-72
2023/10/26 08:59:11;;;;;;;4.83;1.90;;;12.30;99.90;;;;;;4993863;28;20172;-72
2023/10/26 09:01:36;;;;;;;2.50;1.77;;;12.40;99.90;;;;;;4993798;28;20175;-72
2023/10/26 09:04:07;;;;;;;4.53;2.43;;;12.40;99.90;;;;;;4993377;28;20668;-72
2023/10/26 09:06:47;;;;;;;3.40;2.80;;;12.30;99.90;;;;;;4993427;28;20199;-72
2023/10/26 09:09:13;;;;;;;3.50;2.03;;;12.30;99.90;;;;;;4992861;28;20430;-73
2023/10/26 09:11:39;;;;;;;3.17;1.83;;;12.40;99.90;;;;;;4991911;28;20438;-73
2023/10/26 09:14:14;;;;;;;2.10;1.87;;;12.40;99.90;;;;;;4991619;28;20446;-73
2023/10/26 09:16:44;;;;;;;1.90;1.80;;;12.40;99.90;;;;;;4987688;28;20700;-72
2023/10/26 09:19:14;;;;;;;2.40;1.80;;;12.40;99.90;;;;;;4992433;28;20470;-72
2023/10/26 09:21:57;;;;;;;2.97;1.63;;;12.30;99.90;;;;;;4988042;28;20825;-73
2023/10/26 09:24:25;;;;;;;2.47;1.50;;;12.10;99.90;;;;;;4992378;28;20435;-72
2023/10/26 09:26:59;;;;;;;2.17;1.80;;;12.00;99.90;;;;;;4992352;28;20458;-72
2023/10/26 09:29:37;;;;;;;1.80;1.70;;;11.90;99.90;;;;;;4990730;28;20462;-72
2023/10/26 09:32:04;;;;;;;3.03;2.10;;;11.70;99.90;;;;;;4990479;28;20494;-73
2023/10/26 09:34:29;;;;;;;2.47;2.27;;;11.70;99.90;;;;;;4992311;28;20439;-72
2023/10/26 09:37:03;;;;;;;2.73;1.63;;;11.60;99.90;;;;;;4992303;28;20508;-73
2023/10/26 09:39:31;;;;;;;2.67;2.07;;;11.50;99.90;;;;;;4990410;28;20274;-73
2023/10/26 09:42:01;;;;;;;2.03;1.93;;;11.40;99.90;;;;;;4991375;28;20963;-73
2023/10/26 09:44:30;;;;;;;5.27;2.23;;;11.30;99.90;;;;;;4991156;28;20522;-73
2023/10/26 09:46:56;;;;;;;2.77;2.40;;;11.30;99.90;;;;;;4990840;28;20454;-73
2023/10/26 09:49:23;;;;;;;3.70;2.60;;;11.20;99.90;;;;;;4985376;28;20469;-74
2023/10/26 09:51:49;;;;;;;3.40;3.10;;;11.30;99.90;;;;;;4992927;28;20454;-74
2023/10/26 09:54:17;;;;;;;3.37;3.07;;;11.20;99.90;;;;;;4992525;28;20458;-75
2023/10/26 09:56:50;;;;;;;5.10;2.80;;;11.20;99.90;;;;;;4991461;28;20249;-75
2023/10/26 09:59:15;;;;;;;2.90;2.70;;;11.20;99.90;;;;;;4992908;28;20845;-74
2023/10/26 10:01:41;;;;;;;2.53;2.33;;;11.20;99.90;;;;;;4992859;28;20442;-74
2023/10/26 10:04:09;;;;;;;4.50;3.00;;;11.20;99.90;;;;;;4992281;28;20484;-74
2023/10/26 10:06:51;;;;;;;2.77;2.53;;;11.30;99.90;;;;;;4992734;28;20183;-74
2023/10/26 10:09:24;;;;;;;3.97;3.13;;;11.40;99.90;;;;;;4991475;28;20426;-74
2023/10/26 10:12:14;;;;;;;3.47;2.97;;;11.50;99.90;;;;;;4992517;28;20427;-74
2023/10/26 10:14:54;;;;;;;2.80;2.47;;;11.50;99.90;;;;;;4992172;28;20510;-74
2023/10/26 10:17:22;;;;;;;3.73;2.63;;;11.50;99.90;;;;;;4992474;28;20449;-74
2023/10/26 10:20:06;;;;;;;2.70;2.50;;;11.60;99.90;;;;;;4992647;28;20800;-73
2023/10/26 10:22:37;;;;;;;3.50;2.77;;;11.60;99.90;;;;;;4992241;28;20476;-75
2023/10/26 10:25:03;;;;;;;2.67;2.47;;;11.70;99.90;;;;;;4992545;28;20427;-74
2023/10/26 10:27:29;;;;;;;3.20;2.80;;;11.70;99.90;;;;;;4992315;28;20454;-73
2023/10/26 10:30:02;;;;;;;4.43;3.07;;;11.80;99.90;;;;;;4992442;28;20422;-74
2023/10/26 10:32:43;;;;;;;2.70;2.20;;;11.80;99.90;;;;;;4992075;28;20237;-74
2023/10/26 10:35:32;;;;;;;4.83;2.90;;;11.80;99.90;;;;;;4992399;28;20497;-74
2023/10/26 10:38:18;;;;;;;3.07;2.77;;;11.70;99.90;;;;;;4986666;28;20469;-74
2023/10/26 10:40:55;;;;;;;2.83;2.63;;;11.80;99.90;;;;;;4992595;28;20418;-74
2023/10/26 10:43:46;;;;;;;3.10;2.90;;;11.90;99.90;;;;;;4992563;28;20536;-74
2023/10/26 10:46:18;;;;;;;3.27;2.57;;;11.90;99.90;;;;;;4996203;28;20504;-74
2023/10/26 10:49:14;;;;;;;4.03;3.00;;;11.90;99.90;;;;;;4995419;28;20461;-74
2023/10/26 10:51:42;;;;;;;2.67;2.47;;;12.00;99.90;;;;;;4986747;28;20473;-73
2023/10/26 10:54:10;;;;;;;3.30;3.00;;;12.00;99.90;;;;;;4994519;28;20438;-73
2023/10/26 10:56:44;;;;;;;3.07;2.87;;;12.10;99.90;;;;;;4995415;28;20496;-73
2023/10/26 10:59:25;;;;;;;2.97;2.40;;;12.20;99.90;;;;;;4994447;28;20430;-74
2023/10/26 11:02:11;;;;;;;3.67;3.47;;;12.20;99.90;;;;;;4994958;28;20442;-73
2023/10/26 11:04:52;;;;;;;4.50;2.50;;;12.30;99.90;;;;;;4995597;28;20562;-73
2023/10/26 11:07:27;;;;;;;3.40;3.10;;;12.50;99.90;;;;;;4995864;28;20439;-73
2023/10/26 11:09:57;;;;;;;7.73;2.50;;;12.60;99.90;;;;;;4994554;28;21087;-74
2023/10/26 11:12:23;;;;;;;2.13;1.93;;;12.70;99.90;;;;;;4995559;28;20555;-73
2023/10/26 11:14:50;;;;;;;3.63;2.50;;;12.70;99.90;;;;;;4995608;28;20414;-73
2023/10/26 11:17:21;;;;;;;2.97;2.77;;;12.70;99.90;;;;;;4995505;28;20446;-73
2023/10/26 11:19:47;;;;;;;2.63;2.43;;;12.70;99.90;;;;;;4995642;28;20502;-72
2023/10/26 11:22:17;;;;;;;4.10;2.30;;;12.80;99.90;;;;;;4995338;28;20442;-73
2023/10/26 11:24:43;;;;;;;2.37;2.17;;;12.90;99.90;;;;;;4986556;28;20919;-72
2023/10/26 11:27:20;;;;;;;2.73;2.10;;;12.90;99.90;;;;;;4995013;28;20540;-72
2023/10/26 11:30:04;;;;;;;2.20;2.10;;;12.90;99.90;;;;;;4988390;28;20454;-72
2023/10/26 11:32:30;;;;;;;1.97;1.87;;;12.80;99.90;;;;;;4995258;28;20616;-72
2023/10/26 11:35:07;;;;;;;2.00;1.80;;;12.70;99.90;;;;;;4995160;28;20454;-72
2023/10/26 11:37:37;;;;;;;2.73;2.53;;;12.60;99.90;;;;;;4995169;28;20187;-72
2023/10/26 11:40:04;;;;;;;2.57;1.90;;;12.70;99.90;;;;;;4995418;28;20422;-72
2023/10/26 11:42:59;;;;;;;2.20;2.00;;;12.80;99.90;;;;;;4995046;28;20763;-72
2023/10/26 11:45:26;;;;;;;2.60;2.50;;;13.00;99.90;;;;;;4995044;28;20445;-72
2023/10/26 11:48:01;;;;;;;3.17;2.87;;;13.20;99.90;;;;;;4995348;28;20904;-72
2023/10/26 11:50:29;;;;;;;2.87;2.67;;;13.60;99.90;;;;;;4995086;28;20460;-72
2023/10/26 11:53:00;;;;;;;2.50;2.30;;;13.80;99.90;;;;;;4994502;28;20469;-71
2023/10/26 11:55:27;;;;;;;2.20;2.10;;;14.10;99.90;;;;;;4994050;28;20780;-72
2023/10/26 11:57:56;;;;;;;2.10;1.90;;;14.40;99.90;;;;;;4993634;28;20469;-72
2023/10/26 12:00:22;;;;;;;2.67;2.50;;;14.70;99.90;;;;;;4994984;28;20422;-71
2023/10/26 12:02:48;;;;;;;2.73;2.30;;;15.20;99.90;;;;;;4994515;28;20459;-71
2023/10/26 12:05:18;;;;;;;3.20;2.13;;;16.00;99.90;;;;;;4994896;28;20505;-72
2023/10/26 12:07:45;;;;;;;1.87;1.77;;;16.80;99.90;;;;;;4994739;28;20195;-71
2023/10/26 12:10:12;;;;;;;1.70;1.60;;;17.50;99.90;;;;;;4994774;28;20422;-71
2023/10/26 12:12:37;;;;;;;3.20;2.93;;;17.90;99.90;;;;;;4985936;28;20489;-71
2023/10/26 12:15:07;;;;;;;1.70;1.60;;;18.10;99.90;;;;;;4994634;28;20418;-71
2023/10/26 12:17:32;;;;;;;1.50;1.40;;;18.60;99.90;;;;;;4994415;28;20323;-71
2023/10/26 12:19:58;;;;;;;2.37;1.83;;;19.50;99.90;;;;;;4993228;28;20509;-71
2023/10/26 12:22:24;;;;;;;1.63;1.53;;;20.00;99.90;;;;;;4994386;28;20561;-72
2023/10/26 12:24:49;;;;;;;1.97;1.70;;;20.10;99.90;;;;;;4994140;28;20234;-71
2023/10/26 12:27:18;;;;;;;2.07;1.33;;;20.80;99.90;;;;;;4994314;28;20301;-72
2023/10/26 12:29:44;;;;;;;1.87;1.70;;;21.10;99.90;;;;;;4994306;28;20249;-71
2023/10/26 12:32:10;;;;;;;2.27;2.07;;;19.80;99.90;;;;;;4993976;28;21053;-71
2023/10/26 12:34:36;;;;;;;1.70;1.60;;;19.60;99.90;;;;;;4993956;28;20422;-71
2023/10/26 12:37:02;;;;;;;2.13;2.03;;;19.50;99.90;;;;;;4994120;28;20451;-72
2023/10/26 12:39:27;;;;;;;2.13;2.03;;;19.30;99.90;;;;;;4994107;28;20566;-71
2023/10/26 12:41:53;;;;;;;2.50;2.30;;;20.20;99.90;;;;;;4992744;28;20541;-72
2023/10/26 12:44:21;;;;;;;1.67;1.57;;;21.20;99.90;;;;;;4992222;28;20180;-72
2023/10/26 12:46:48;;;;;;;2.03;1.93;;;21.70;99.90;;;;;;4991887;28;20202;-71
2023/10/26 12:49:14;;;;;;;1.60;1.40;;;22.30;99.90;;;;;;4993500;28;20477;-72
2023/10/26 12:51:40;;;;;;;2.00;1.90;;;23.20;99.90;;;;;;4993369;28;20479;-72
2023/10/26 12:54:07;;;;;;;1.50;1.40;;;24.00;99.90;;;;;;4992523;28;20242;-72